< < Back
Terminal Aerodrome Forecast


Current Version              Previous Versions:   1  2  3  4  5  6  7  8  9  

Terminal Aerodrome Forecast

110
FTUS44 KHUN 082320
TAFHSV
TAF
KHSV 082320Z 0900/0924 30014G23KT P6SM -RASN BKN040 OVC080
     FM090300 30009G15KT P6SM OVC040
     FM090900 30009KT P6SM -SHSN OVC030
     FM091400 30010G17KT P6SM -SHSN SCT020 OVC030=



Latest METAR

398
SAUS80 KWBC 082300 RRB
MTRHSV
METAR KHSV 082253Z 30017G25KT 10SM SCT055 OVC070 05/M07 A2988 RMK AO2 PK
WND 30027/2241 SLP120 T00501072


USA.gov is the U.S. government's official web portal to all federal, state and local government web resources and services.